sensor_id;sensor_type;location;lat;lon;timestamp;P1;durP1;ratioP1;P2;durP2;ratioP2
52043;SDS011;38053;53.100;6.078;2023-03-14T00:00:23;28.75;;;6.28;;
52043;SDS011;38053;53.100;6.078;2023-03-14T00:02:53;26.40;;;6.55;;
52043;SDS011;38053;53.100;6.078;2023-03-14T00:05:19;30.05;;;6.53;;
52043;SDS011;38053;53.100;6.078;2023-03-14T00:07:45;33.08;;;7.05;;
52043;SDS011;38053;53.100;6.078;2023-03-14T00:10:14;35.08;;;7.45;;
52043;SDS011;38053;53.100;6.078;2023-03-14T00:13:17;37.10;;;5.53;;
52043;SDS011;38053;53.100;6.078;2023-03-14T00:15:43;30.45;;;7.22;;
52043;SDS011;38053;53.100;6.078;2023-03-14T00:18:08;36.45;;;7.18;;
52043;SDS011;38053;53.100;6.078;2023-03-14T00:20:34;33.38;;;5.68;;
52043;SDS011;38053;53.100;6.078;2023-03-14T00:23:01;27.67;;;6.28;;
52043;SDS011;38053;53.100;6.078;2023-03-14T00:25:27;23.98;;;5.82;;
52043;SDS011;38053;53.100;6.078;2023-03-14T00:27:53;32.08;;;6.35;;
52043;SDS011;38053;53.100;6.078;2023-03-14T00:30:19;28.25;;;5.60;;
52043;SDS011;38053;53.100;6.078;2023-03-14T00:32:45;29.65;;;6.13;;
52043;SDS011;38053;53.100;6.078;2023-03-14T00:35:12;31.60;;;5.47;;
52043;SDS011;38053;53.100;6.078;2023-03-14T00:37:37;27.10;;;5.03;;
52043;SDS011;38053;53.100;6.078;2023-03-14T00:40:07;23.65;;;6.53;;
52043;SDS011;38053;53.100;6.078;2023-03-14T00:42:33;31.50;;;4.95;;
52043;SDS011;38053;53.100;6.078;2023-03-14T00:45:02;32.40;;;6.38;;
52043;SDS011;38053;53.100;6.078;2023-03-14T00:47:32;24.75;;;5.70;;
52043;SDS011;38053;53.100;6.078;2023-03-14T00:50:01;27.88;;;5.60;;
52043;SDS011;38053;53.100;6.078;2023-03-14T00:52:27;38.13;;;7.05;;
52043;SDS011;38053;53.100;6.078;2023-03-14T00:54:53;25.65;;;5.28;;
52043;SDS011;38053;53.100;6.078;2023-03-14T00:57:21;35.78;;;6.32;;
52043;SDS011;38053;53.100;6.078;2023-03-14T00:59:47;24.42;;;6.50;;
52043;SDS011;38053;53.100;6.078;2023-03-14T01:02:16;30.80;;;6.55;;
52043;SDS011;38053;53.100;6.078;2023-03-14T01:04:42;28.05;;;6.65;;
52043;SDS011;38053;53.100;6.078;2023-03-14T01:07:08;30.48;;;7.03;;
52043;SDS011;38053;53.100;6.078;2023-03-14T01:09:34;19.33;;;4.40;;
52043;SDS011;38053;53.100;6.078;2023-03-14T01:11:59;28.10;;;6.90;;
52043;SDS011;38053;53.100;6.078;2023-03-14T01:14:27;22.13;;;5.38;;
52043;SDS011;38053;53.100;6.078;2023-03-14T01:16:52;26.42;;;4.43;;
52043;SDS011;38053;53.100;6.078;2023-03-14T01:19:19;18.55;;;5.50;;
52043;SDS011;38053;53.100;6.078;2023-03-14T01:21:47;19.88;;;4.80;;
52043;SDS011;38053;53.100;6.078;2023-03-14T01:24:13;18.58;;;4.45;;
52043;SDS011;38053;53.100;6.078;2023-03-14T01:26:39;17.08;;;5.00;;
52043;SDS011;38053;53.100;6.078;2023-03-14T01:29:07;16.83;;;3.80;;
52043;SDS011;38053;53.100;6.078;2023-03-14T01:31:33;19.75;;;4.28;;
52043;SDS011;38053;53.100;6.078;2023-03-14T01:34:02;21.08;;;3.95;;
52043;SDS011;38053;53.100;6.078;2023-03-14T01:36:27;24.30;;;4.82;;
52043;SDS011;38053;53.100;6.078;2023-03-14T01:38:53;28.05;;;4.50;;
52043;SDS011;38053;53.100;6.078;2023-03-14T01:41:23;23.30;;;4.35;;
52043;SDS011;38053;53.100;6.078;2023-03-14T01:43:50;20.38;;;5.75;;
52043;SDS011;38053;53.100;6.078;2023-03-14T01:48:52;18.80;;;4.00;;
52043;SDS011;38053;53.100;6.078;2023-03-14T01:51:30;28.98;;;4.55;;
52043;SDS011;38053;53.100;6.078;2023-03-14T01:54:12;24.10;;;4.10;;
52043;SDS011;38053;53.100;6.078;2023-03-14T01:56:42;18.90;;;4.22;;
52043;SDS011;38053;53.100;6.078;2023-03-14T01:59:11;29.38;;;5.38;;
52043;SDS011;38053;53.100;6.078;2023-03-14T02:01:38;16.40;;;4.05;;
52043;SDS011;38053;53.100;6.078;2023-03-14T02:04:07;23.52;;;3.50;;
52043;SDS011;38053;53.100;6.078;2023-03-14T02:06:42;18.65;;;3.95;;
52043;SDS011;38053;53.100;6.078;2023-03-14T02:09:15;14.93;;;2.58;;
52043;SDS011;38053;53.100;6.078;2023-03-14T02:11:45;22.38;;;4.90;;
52043;SDS011;38053;53.100;6.078;2023-03-14T02:14:14;25.40;;;3.35;;
52043;SDS011;38053;53.100;6.078;2023-03-14T02:16:49;24.13;;;3.17;;
52043;SDS011;38053;53.100;6.078;2023-03-14T02:19:17;27.50;;;4.72;;
52043;SDS011;38053;53.100;6.078;2023-03-14T02:21:57;23.67;;;3.17;;
52043;SDS011;38053;53.100;6.078;2023-03-14T02:25:26;16.05;;;2.97;;
52043;SDS011;38053;53.100;6.078;2023-03-14T02:27:31;20.00;;;3.75;;
52043;SDS011;38053;53.100;6.078;2023-03-14T02:29:59;18.42;;;3.95;;
52043;SDS011;38053;53.100;6.078;2023-03-14T02:32:26;19.13;;;4.38;;
52043;SDS011;38053;53.100;6.078;2023-03-14T02:34:55;15.48;;;3.22;;
52043;SDS011;38053;53.100;6.078;2023-03-14T02:37:24;17.23;;;3.22;;
52043;SDS011;38053;53.100;6.078;2023-03-14T02:40:14;20.30;;;3.88;;
52043;SDS011;38053;53.100;6.078;2023-03-14T02:42:40;20.00;;;4.20;;
52043;SDS011;38053;53.100;6.078;2023-03-14T02:47:33;22.05;;;4.20;;
52043;SDS011;38053;53.100;6.078;2023-03-14T02:50:18;17.80;;;3.60;;
52043;SDS011;38053;53.100;6.078;2023-03-14T02:52:47;17.63;;;3.03;;
52043;SDS011;38053;53.100;6.078;2023-03-14T02:55:22;13.93;;;3.75;;
52043;SDS011;38053;53.100;6.078;2023-03-14T02:57:50;21.75;;;4.18;;
52043;SDS011;38053;53.100;6.078;2023-03-14T03:00:16;19.90;;;4.03;;
52043;SDS011;38053;53.100;6.078;2023-03-14T03:02:44;19.98;;;3.70;;
52043;SDS011;38053;53.100;6.078;2023-03-14T03:05:10;25.77;;;4.57;;
52043;SDS011;38053;53.100;6.078;2023-03-14T03:07:37;20.40;;;4.65;;
52043;SDS011;38053;53.100;6.078;2023-03-14T03:10:03;19.92;;;4.03;;
52043;SDS011;38053;53.100;6.078;2023-03-14T03:12:29;17.30;;;3.83;;
52043;SDS011;38053;53.100;6.078;2023-03-14T03:14:55;22.98;;;3.78;;
52043;SDS011;38053;53.100;6.078;2023-03-14T03:17:21;19.83;;;3.90;;
52043;SDS011;38053;53.100;6.078;2023-03-14T03:19:48;29.42;;;4.90;;
52043;SDS011;38053;53.100;6.078;2023-03-14T03:22:14;23.02;;;5.03;;
52043;SDS011;38053;53.100;6.078;2023-03-14T03:24:39;30.52;;;5.05;;
52043;SDS011;38053;53.100;6.078;2023-03-14T03:27:05;24.67;;;5.15;;
52043;SDS011;38053;53.100;6.078;2023-03-14T03:29:31;31.85;;;6.00;;
52043;SDS011;38053;53.100;6.078;2023-03-14T03:31:57;34.15;;;5.13;;
52043;SDS011;38053;53.100;6.078;2023-03-14T03:34:22;31.05;;;4.90;;
52043;SDS011;38053;53.100;6.078;2023-03-14T03:36:48;24.17;;;5.10;;
52043;SDS011;38053;53.100;6.078;2023-03-14T03:39:14;28.65;;;6.60;;
52043;SDS011;38053;53.100;6.078;2023-03-14T03:41:39;32.47;;;5.13;;
52043;SDS011;38053;53.100;6.078;2023-03-14T03:44:08;28.25;;;5.07;;
52043;SDS011;38053;53.100;6.078;2023-03-14T03:46:34;26.98;;;5.68;;
52043;SDS011;38053;53.100;6.078;2023-03-14T03:49:00;45.75;;;8.57;;
52043;SDS011;38053;53.100;6.078;2023-03-14T03:51:28;38.15;;;9.85;;
52043;SDS011;38053;53.100;6.078;2023-03-14T03:53:55;37.50;;;6.70;;
52043;SDS011;38053;53.100;6.078;2023-03-14T03:56:22;37.53;;;7.60;;
52043;SDS011;38053;53.100;6.078;2023-03-14T03:58:47;35.67;;;7.00;;
52043;SDS011;38053;53.100;6.078;2023-03-14T04:01:13;34.53;;;6.10;;
52043;SDS011;38053;53.100;6.078;2023-03-14T04:03:39;31.42;;;7.57;;
52043;SDS011;38053;53.100;6.078;2023-03-14T04:06:06;35.03;;;6.00;;
52043;SDS011;38053;53.100;6.078;2023-03-14T04:08:34;22.90;;;4.95;;
52043;SDS011;38053;53.100;6.078;2023-03-14T04:11:00;29.55;;;7.55;;
52043;SDS011;38053;53.100;6.078;2023-03-14T04:13:26;31.05;;;6.65;;
52043;SDS011;38053;53.100;6.078;2023-03-14T04:15:53;33.92;;;4.88;;
52043;SDS011;38053;53.100;6.078;2023-03-14T04:18:20;35.45;;;5.97;;
52043;SDS011;38053;53.100;6.078;2023-03-14T04:20:50;27.60;;;4.43;;
52043;SDS011;38053;53.100;6.078;2023-03-14T04:23:19;23.33;;;5.88;;
52043;SDS011;38053;53.100;6.078;2023-03-14T04:25:48;33.05;;;5.22;;
52043;SDS011;38053;53.100;6.078;2023-03-14T04:28:14;26.20;;;5.22;;
52043;SDS011;38053;53.100;6.078;2023-03-14T04:31:19;29.85;;;5.43;;
52043;SDS011;38053;53.100;6.078;2023-03-14T04:33:46;38.03;;;5.47;;
52043;SDS011;38053;53.100;6.078;2023-03-14T04:36:15;28.52;;;5.55;;
52043;SDS011;38053;53.100;6.078;2023-03-14T04:38:41;28.60;;;5.20;;
52043;SDS011;38053;53.100;6.078;2023-03-14T04:41:07;29.70;;;6.20;;
52043;SDS011;38053;53.100;6.078;2023-03-14T04:43:33;32.05;;;6.68;;
52043;SDS011;38053;53.100;6.078;2023-03-14T04:46:02;36.78;;;8.10;;
52043;SDS011;38053;53.100;6.078;2023-03-14T04:48:28;30.77;;;6.55;;
52043;SDS011;38053;53.100;6.078;2023-03-14T04:50:54;40.92;;;7.85;;
52043;SDS011;38053;53.100;6.078;2023-03-14T04:53:20;29.15;;;6.25;;
52043;SDS011;38053;53.100;6.078;2023-03-14T04:55:52;24.17;;;7.03;;
52043;SDS011;38053;53.100;6.078;2023-03-14T04:58:20;20.67;;;6.50;;
52043;SDS011;38053;53.100;6.078;2023-03-14T05:00:46;27.10;;;8.18;;
52043;SDS011;38053;53.100;6.078;2023-03-14T05:03:16;23.75;;;7.32;;
52043;SDS011;38053;53.100;6.078;2023-03-14T05:05:43;20.77;;;6.72;;
52043;SDS011;38053;53.100;6.078;2023-03-14T05:08:09;25.15;;;6.95;;
52043;SDS011;38053;53.100;6.078;2023-03-14T05:10:35;23.42;;;7.45;;
52043;SDS011;38053;53.100;6.078;2023-03-14T05:13:01;24.98;;;7.57;;
52043;SDS011;38053;53.100;6.078;2023-03-14T05:15:27;14.40;;;6.30;;
52043;SDS011;38053;53.100;6.078;2023-03-14T05:17:56;19.80;;;7.63;;
52043;SDS011;38053;53.100;6.078;2023-03-14T05:20:21;23.55;;;6.47;;
52043;SDS011;38053;53.100;6.078;2023-03-14T05:22:47;22.27;;;7.70;;
52043;SDS011;38053;53.100;6.078;2023-03-14T05:25:13;25.73;;;7.50;;
52043;SDS011;38053;53.100;6.078;2023-03-14T05:27:39;30.20;;;7.18;;
52043;SDS011;38053;53.100;6.078;2023-03-14T05:30:07;19.90;;;8.27;;
52043;SDS011;38053;53.100;6.078;2023-03-14T05:32:34;20.50;;;6.65;;
52043;SDS011;38053;53.100;6.078;2023-03-14T05:35:01;13.32;;;5.85;;
52043;SDS011;38053;53.100;6.078;2023-03-14T05:37:27;16.25;;;5.22;;
52043;SDS011;38053;53.100;6.078;2023-03-14T05:39:53;12.02;;;5.07;;
52043;SDS011;38053;53.100;6.078;2023-03-14T05:42:19;15.68;;;5.82;;
52043;SDS011;38053;53.100;6.078;2023-03-14T05:44:45;18.23;;;5.70;;
52043;SDS011;38053;53.100;6.078;2023-03-14T05:47:10;22.52;;;6.72;;
52043;SDS011;38053;53.100;6.078;2023-03-14T05:49:39;17.50;;;7.00;;
52043;SDS011;38053;53.100;6.078;2023-03-14T05:52:08;16.02;;;6.65;;
52043;SDS011;38053;53.100;6.078;2023-03-14T05:54:35;13.93;;;6.10;;
52043;SDS011;38053;53.100;6.078;2023-03-14T05:57:02;10.73;;;4.82;;
52043;SDS011;38053;53.100;6.078;2023-03-14T05:59:28;14.70;;;5.63;;
52043;SDS011;38053;53.100;6.078;2023-03-14T06:01:56;14.77;;;5.57;;
52043;SDS011;38053;53.100;6.078;2023-03-14T06:04:21;14.45;;;4.43;;
52043;SDS011;38053;53.100;6.078;2023-03-14T06:06:47;9.13;;;4.00;;
52043;SDS011;38053;53.100;6.078;2023-03-14T06:09:13;11.35;;;4.57;;
52043;SDS011;38053;53.100;6.078;2023-03-14T06:11:40;13.50;;;5.10;;
52043;SDS011;38053;53.100;6.078;2023-03-14T06:14:06;13.70;;;4.70;;
52043;SDS011;38053;53.100;6.078;2023-03-14T06:16:32;10.82;;;4.38;;
52043;SDS011;38053;53.100;6.078;2023-03-14T06:18:59;9.95;;;3.30;;
52043;SDS011;38053;53.100;6.078;2023-03-14T06:21:25;12.23;;;1.75;;
52043;SDS011;38053;53.100;6.078;2023-03-14T06:23:54;8.10;;;1.60;;
52043;SDS011;38053;53.100;6.078;2023-03-14T06:26:25;17.42;;;2.58;;
52043;SDS011;38053;53.100;6.078;2023-03-14T06:28:54;16.88;;;1.80;;
52043;SDS011;38053;53.100;6.078;2023-03-14T06:31:21;19.35;;;3.75;;
52043;SDS011;38053;53.100;6.078;2023-03-14T06:33:47;18.55;;;2.72;;
52043;SDS011;38053;53.100;6.078;2023-03-14T06:36:13;20.02;;;2.75;;
52043;SDS011;38053;53.100;6.078;2023-03-14T06:38:40;15.27;;;3.00;;
52043;SDS011;38053;53.100;6.078;2023-03-14T06:41:06;18.75;;;3.47;;
52043;SDS011;38053;53.100;6.078;2023-03-14T06:43:32;23.85;;;3.05;;
52043;SDS011;38053;53.100;6.078;2023-03-14T06:45:58;22.50;;;3.38;;
52043;SDS011;38053;53.100;6.078;2023-03-14T06:48:24;25.33;;;4.40;;
52043;SDS011;38053;53.100;6.078;2023-03-14T06:50:50;18.75;;;2.38;;
52043;SDS011;38053;53.100;6.078;2023-03-14T06:53:16;22.48;;;3.30;;
52043;SDS011;38053;53.100;6.078;2023-03-14T06:55:42;15.63;;;2.17;;
52043;SDS011;38053;53.100;6.078;2023-03-14T06:58:08;13.75;;;2.22;;
52043;SDS011;38053;53.100;6.078;2023-03-14T07:00:43;12.63;;;1.83;;
52043;SDS011;38053;53.100;6.078;2023-03-14T07:03:13;16.33;;;1.48;;
52043;SDS011;38053;53.100;6.078;2023-03-14T07:05:42;10.75;;;1.95;;
52043;SDS011;38053;53.100;6.078;2023-03-14T07:08:10;10.52;;;1.65;;
52043;SDS011;38053;53.100;6.078;2023-03-14T07:10:36;7.30;;;1.75;;
52043;SDS011;38053;53.100;6.078;2023-03-14T07:13:12;12.57;;;1.05;;
52043;SDS011;38053;53.100;6.078;2023-03-14T07:15:39;9.63;;;2.45;;
52043;SDS011;38053;53.100;6.078;2023-03-14T07:18:05;14.13;;;2.83;;
52043;SDS011;38053;53.100;6.078;2023-03-14T07:20:31;8.02;;;1.52;;
52043;SDS011;38053;53.100;6.078;2023-03-14T07:22:57;4.30;;;1.42;;
52043;SDS011;38053;53.100;6.078;2023-03-14T07:25:25;5.43;;;0.85;;
52043;SDS011;38053;53.100;6.078;2023-03-14T07:27:51;12.63;;;1.33;;
52043;SDS011;38053;53.100;6.078;2023-03-14T07:30:17;6.00;;;1.15;;
52043;SDS011;38053;53.100;6.078;2023-03-14T07:32:42;10.93;;;2.83;;
52043;SDS011;38053;53.100;6.078;2023-03-14T07:35:08;5.78;;;1.48;;
52043;SDS011;38053;53.100;6.078;2023-03-14T07:37:36;6.57;;;1.40;;
52043;SDS011;38053;53.100;6.078;2023-03-14T07:40:01;11.85;;;2.05;;
52043;SDS011;38053;53.100;6.078;2023-03-14T07:42:33;9.23;;;1.25;;
52043;SDS011;38053;53.100;6.078;2023-03-14T07:45:03;9.32;;;1.25;;
52043;SDS011;38053;53.100;6.078;2023-03-14T07:47:29;6.25;;;1.40;;
52043;SDS011;38053;53.100;6.078;2023-03-14T07:49:56;10.10;;;1.33;;
52043;SDS011;38053;53.100;6.078;2023-03-14T07:52:22;8.65;;;2.00;;
52043;SDS011;38053;53.100;6.078;2023-03-14T07:54:50;19.30;;;3.22;;
52043;SDS011;38053;53.100;6.078;2023-03-14T07:57:16;9.55;;;1.15;;
52043;SDS011;38053;53.100;6.078;2023-03-14T07:59:42;5.32;;;0.93;;
52043;SDS011;38053;53.100;6.078;2023-03-14T08:02:11;9.43;;;1.77;;
52043;SDS011;38053;53.100;6.078;2023-03-14T08:04:38;8.90;;;2.30;;
52043;SDS011;38053;53.100;6.078;2023-03-14T08:07:05;12.05;;;3.05;;
52043;SDS011;38053;53.100;6.078;2023-03-14T08:09:31;10.35;;;1.42;;
52043;SDS011;38053;53.100;6.078;2023-03-14T08:12:01;6.78;;;1.88;;
52043;SDS011;38053;53.100;6.078;2023-03-14T08:14:27;15.18;;;2.70;;
52043;SDS011;38053;53.100;6.078;2023-03-14T08:16:54;9.95;;;1.55;;
52043;SDS011;38053;53.100;6.078;2023-03-14T08:19:20;11.93;;;2.67;;
52043;SDS011;38053;53.100;6.078;2023-03-14T08:21:46;21.42;;;2.85;;
52043;SDS011;38053;53.100;6.078;2023-03-14T08:24:13;11.32;;;1.83;;
52043;SDS011;38053;53.100;6.078;2023-03-14T08:26:40;15.23;;;1.92;;
52043;SDS011;38053;53.100;6.078;2023-03-14T08:29:10;18.77;;;4.32;;
52043;SDS011;38053;53.100;6.078;2023-03-14T08:31:37;9.40;;;1.77;;
52043;SDS011;38053;53.100;6.078;2023-03-14T08:34:05;14.60;;;2.40;;
52043;SDS011;38053;53.100;6.078;2023-03-14T08:36:32;13.35;;;3.15;;
52043;SDS011;38053;53.100;6.078;2023-03-14T08:38:58;13.57;;;2.30;;
52043;SDS011;38053;53.100;6.078;2023-03-14T08:41:24;25.95;;;3.45;;
52043;SDS011;38053;53.100;6.078;2023-03-14T08:43:50;15.15;;;3.75;;
52043;SDS011;38053;53.100;6.078;2023-03-14T08:46:16;18.48;;;3.20;;
52043;SDS011;38053;53.100;6.078;2023-03-14T08:48:41;30.08;;;4.22;;
52043;SDS011;38053;53.100;6.078;2023-03-14T08:51:07;14.52;;;4.00;;
52043;SDS011;38053;53.100;6.078;2023-03-14T08:53:37;21.30;;;2.85;;
52043;SDS011;38053;53.100;6.078;2023-03-14T08:56:03;18.80;;;3.22;;
52043;SDS011;38053;53.100;6.078;2023-03-14T08:58:31;20.63;;;3.42;;
52043;SDS011;38053;53.100;6.078;2023-03-14T09:01:08;28.15;;;3.53;;
52043;SDS011;38053;53.100;6.078;2023-03-14T09:03:40;26.55;;;5.88;;
52043;SDS011;38053;53.100;6.078;2023-03-14T09:06:10;25.58;;;5.57;;
52043;SDS011;38053;53.100;6.078;2023-03-14T09:08:36;22.50;;;6.60;;
52043;SDS011;38053;53.100;6.078;2023-03-14T09:11:03;31.70;;;4.97;;
52043;SDS011;38053;53.100;6.078;2023-03-14T09:13:33;29.67;;;4.80;;
52043;SDS011;38053;53.100;6.078;2023-03-14T09:16:05;19.85;;;3.85;;
52043;SDS011;38053;53.100;6.078;2023-03-14T09:18:31;37.92;;;4.85;;
52043;SDS011;38053;53.100;6.078;2023-03-14T09:20:57;23.98;;;5.35;;
52043;SDS011;38053;53.100;6.078;2023-03-14T09:23:23;29.50;;;4.80;;
52043;SDS011;38053;53.100;6.078;2023-03-14T09:25:49;21.52;;;4.63;;
52043;SDS011;38053;53.100;6.078;2023-03-14T09:28:19;20.35;;;5.57;;
52043;SDS011;38053;53.100;6.078;2023-03-14T09:30:44;31.67;;;4.88;;
52043;SDS011;38053;53.100;6.078;2023-03-14T09:33:12;22.42;;;4.50;;
52043;SDS011;38053;53.100;6.078;2023-03-14T09:35:38;28.05;;;4.40;;
52043;SDS011;38053;53.100;6.078;2023-03-14T09:38:03;19.23;;;4.22;;
52043;SDS011;38053;53.100;6.078;2023-03-14T09:40:31;39.42;;;4.82;;
52043;SDS011;38053;53.100;6.078;2023-03-14T09:43:02;22.98;;;3.85;;
52043;SDS011;38053;53.100;6.078;2023-03-14T09:45:32;18.38;;;5.60;;
52043;SDS011;38053;53.100;6.078;2023-03-14T09:47:59;27.08;;;5.30;;
52043;SDS011;38053;53.100;6.078;2023-03-14T09:50:30;37.58;;;7.20;;
52043;SDS011;38053;53.100;6.078;2023-03-14T09:53:09;27.33;;;5.43;;
52043;SDS011;38053;53.100;6.078;2023-03-14T09:55:39;28.35;;;5.13;;
52043;SDS011;38053;53.100;6.078;2023-03-14T09:58:13;24.27;;;3.97;;
52043;SDS011;38053;53.100;6.078;2023-03-14T10:00:43;30.15;;;6.70;;
52043;SDS011;38053;53.100;6.078;2023-03-14T10:05:40;21.20;;;4.65;;
52043;SDS011;38053;53.100;6.078;2023-03-14T10:08:09;22.98;;;4.18;;
52043;SDS011;38053;53.100;6.078;2023-03-14T10:10:37;43.20;;;4.47;;
52043;SDS011;38053;53.100;6.078;2023-03-14T10:15:35;19.55;;;3.15;;
52043;SDS011;38053;53.100;6.078;2023-03-14T10:18:03;22.00;;;3.50;;
52043;SDS011;38053;53.100;6.078;2023-03-14T10:20:40;19.98;;;4.65;;
52043;SDS011;38053;53.100;6.078;2023-03-14T10:25:43;20.75;;;2.97;;
52043;SDS011;38053;53.100;6.078;2023-03-14T10:28:24;11.05;;;2.33;;
52043;SDS011;38053;53.100;6.078;2023-03-14T10:30:52;22.33;;;3.53;;
52043;SDS011;38053;53.100;6.078;2023-03-14T10:33:20;15.52;;;3.58;;
52043;SDS011;38053;53.100;6.078;2023-03-14T10:35:52;15.20;;;2.90;;
52043;SDS011;38053;53.100;6.078;2023-03-14T10:38:22;26.08;;;3.40;;
52043;SDS011;38053;53.100;6.078;2023-03-14T10:40:50;21.50;;;3.00;;
52043;SDS011;38053;53.100;6.078;2023-03-14T10:43:19;17.10;;;2.90;;
52043;SDS011;38053;53.100;6.078;2023-03-14T10:45:58;17.63;;;3.72;;
52043;SDS011;38053;53.100;6.078;2023-03-14T10:48:34;15.35;;;2.67;;
52043;SDS011;38053;53.100;6.078;2023-03-14T10:51:10;16.40;;;3.13;;
52043;SDS011;38053;53.100;6.078;2023-03-14T10:53:43;17.02;;;2.80;;
52043;SDS011;38053;53.100;6.078;2023-03-14T10:56:14;10.73;;;2.75;;
52043;SDS011;38053;53.100;6.078;2023-03-14T10:58:43;19.40;;;3.30;;
52043;SDS011;38053;53.100;6.078;2023-03-14T11:04:01;18.33;;;3.00;;
52043;SDS011;38053;53.100;6.078;2023-03-14T11:07:10;7.97;;;1.95;;
52043;SDS011;38053;53.100;6.078;2023-03-14T11:18:18;6.15;;;1.90;;
52043;SDS011;38053;53.100;6.078;2023-03-14T11:26:36;13.38;;;2.17;;
52043;SDS011;38053;53.100;6.078;2023-03-14T11:29:54;8.43;;;1.83;;
52043;SDS011;38053;53.100;6.078;2023-03-14T11:32:10;12.38;;;2.10;;
52043;SDS011;38053;53.100;6.078;2023-03-14T11:34:53;17.48;;;1.77;;
52043;SDS011;38053;53.100;6.078;2023-03-14T11:37:33;6.85;;;2.53;;
52043;SDS011;38053;53.100;6.078;2023-03-14T11:40:19;12.45;;;2.15;;
52043;SDS011;38053;53.100;6.078;2023-03-14T11:45:58;9.38;;;2.10;;
52043;SDS011;38053;53.100;6.078;2023-03-14T11:50:59;16.80;;;3.58;;
52043;SDS011;38053;53.100;6.078;2023-03-14T11:56:18;10.32;;;2.13;;
52043;SDS011;38053;53.100;6.078;2023-03-14T11:58:57;18.73;;;3.88;;
52043;SDS011;38053;53.100;6.078;2023-03-14T12:01:36;6.47;;;1.75;;
52043;SDS011;38053;53.100;6.078;2023-03-14T12:04:29;14.63;;;2.80;;
52043;SDS011;38053;53.100;6.078;2023-03-14T12:07:20;20.90;;;3.75;;
52043;SDS011;38053;53.100;6.078;2023-03-14T12:09:58;14.95;;;2.78;;
52043;SDS011;38053;53.100;6.078;2023-03-14T12:12:24;14.13;;;2.05;;
52043;SDS011;38053;53.100;6.078;2023-03-14T12:14:56;16.92;;;2.75;;
52043;SDS011;38053;53.100;6.078;2023-03-14T12:17:26;16.38;;;2.60;;
52043;SDS011;38053;53.100;6.078;2023-03-14T12:20:17;13.48;;;2.90;;
52043;SDS011;38053;53.100;6.078;2023-03-14T12:22:55;14.05;;;1.60;;
52043;SDS011;38053;53.100;6.078;2023-03-14T12:25:32;19.38;;;2.97;;
52043;SDS011;38053;53.100;6.078;2023-03-14T12:28:03;13.65;;;2.90;;
52043;SDS011;38053;53.100;6.078;2023-03-14T12:30:39;20.50;;;2.50;;
52043;SDS011;38053;53.100;6.078;2023-03-14T12:35:51;8.75;;;2.90;;
52043;SDS011;38053;53.100;6.078;2023-03-14T12:43:29;11.15;;;2.08;;
52043;SDS011;38053;53.100;6.078;2023-03-14T12:48:50;15.30;;;2.03;;
52043;SDS011;38053;53.100;6.078;2023-03-14T12:51:37;6.85;;;2.38;;
52043;SDS011;38053;53.100;6.078;2023-03-14T12:59:50;8.35;;;2.15;;
52043;SDS011;38053;53.100;6.078;2023-03-14T13:04:59;14.82;;;3.45;;
52043;SDS011;38053;53.100;6.078;2023-03-14T13:10:45;11.32;;;2.58;;
52043;SDS011;38053;53.100;6.078;2023-03-14T13:13:19;8.67;;;1.57;;
52043;SDS011;38053;53.100;6.078;2023-03-14T13:15:47;8.40;;;2.28;;
52043;SDS011;38053;53.100;6.078;2023-03-14T13:18:41;21.58;;;1.80;;
52043;SDS011;38053;53.100;6.078;2023-03-14T13:21:18;6.35;;;1.20;;
52043;SDS011;38053;53.100;6.078;2023-03-14T13:23:56;9.73;;;2.13;;
52043;SDS011;38053;53.100;6.078;2023-03-14T13:26:40;16.33;;;1.50;;
52043;SDS011;38053;53.100;6.078;2023-03-14T13:29:15;15.77;;;1.83;;
52043;SDS011;38053;53.100;6.078;2023-03-14T13:31:52;13.02;;;1.70;;
52043;SDS011;38053;53.100;6.078;2023-03-14T13:34:26;9.82;;;2.10;;
52043;SDS011;38053;53.100;6.078;2023-03-14T13:36:54;4.82;;;1.08;;
52043;SDS011;38053;53.100;6.078;2023-03-14T13:39:21;12.13;;;2.35;;
52043;SDS011;38053;53.100;6.078;2023-03-14T13:41:49;10.15;;;1.90;;
52043;SDS011;38053;53.100;6.078;2023-03-14T13:47:00;8.32;;;1.75;;
52043;SDS011;38053;53.100;6.078;2023-03-14T13:49:28;11.35;;;1.92;;
52043;SDS011;38053;53.100;6.078;2023-03-14T13:52:01;12.15;;;1.50;;
52043;SDS011;38053;53.100;6.078;2023-03-14T13:54:35;15.07;;;2.30;;
52043;SDS011;38053;53.100;6.078;2023-03-14T13:57:06;11.32;;;2.00;;
52043;SDS011;38053;53.100;6.078;2023-03-14T13:59:39;8.48;;;1.60;;
52043;SDS011;38053;53.100;6.078;2023-03-14T14:02:20;10.20;;;1.80;;
52043;SDS011;38053;53.100;6.078;2023-03-14T14:04:53;9.15;;;2.47;;
52043;SDS011;38053;53.100;6.078;2023-03-14T14:07:19;10.45;;;2.20;;
52043;SDS011;38053;53.100;6.078;2023-03-14T14:10:02;9.85;;;1.75;;
52043;SDS011;38053;53.100;6.078;2023-03-14T14:12:36;13.77;;;2.15;;
52043;SDS011;38053;53.100;6.078;2023-03-14T14:15:11;13.55;;;1.70;;
52043;SDS011;38053;53.100;6.078;2023-03-14T14:17:56;7.85;;;1.50;;
52043;SDS011;38053;53.100;6.078;2023-03-14T14:23:05;7.07;;;1.33;;
52043;SDS011;38053;53.100;6.078;2023-03-14T14:25:44;8.63;;;2.50;;
52043;SDS011;38053;53.100;6.078;2023-03-14T14:31:17;12.27;;;2.17;;
52043;SDS011;38053;53.100;6.078;2023-03-14T14:33:59;9.32;;;2.55;;
52043;SDS011;38053;53.100;6.078;2023-03-14T14:39:11;8.85;;;1.63;;
52043;SDS011;38053;53.100;6.078;2023-03-14T14:42:11;9.27;;;2.47;;
52043;SDS011;38053;53.100;6.078;2023-03-14T14:44:45;13.20;;;1.50;;
52043;SDS011;38053;53.100;6.078;2023-03-14T14:47:24;9.38;;;1.23;;
52043;SDS011;38053;53.100;6.078;2023-03-14T14:49:58;10.70;;;2.58;;
52043;SDS011;38053;53.100;6.078;2023-03-14T14:52:47;15.20;;;1.67;;
52043;SDS011;38053;53.100;6.078;2023-03-14T14:55:45;11.68;;;1.60;;
52043;SDS011;38053;53.100;6.078;2023-03-14T14:58:39;9.45;;;2.58;;
52043;SDS011;38053;53.100;6.078;2023-03-14T15:04:11;7.05;;;2.20;;
52043;SDS011;38053;53.100;6.078;2023-03-14T15:07:07;12.15;;;2.50;;
52043;SDS011;38053;53.100;6.078;2023-03-14T15:09:47;14.90;;;2.15;;
52043;SDS011;38053;53.100;6.078;2023-03-14T15:12:42;16.85;;;2.58;;
52043;SDS011;38053;53.100;6.078;2023-03-14T15:15:40;5.70;;;2.20;;
52043;SDS011;38053;53.100;6.078;2023-03-14T15:18:16;14.98;;;2.25;;
52043;SDS011;38053;53.100;6.078;2023-03-14T15:21:14;11.20;;;2.30;;
52043;SDS011;38053;53.100;6.078;2023-03-14T15:23:44;13.95;;;2.75;;
52043;SDS011;38053;53.100;6.078;2023-03-14T15:26:15;10.05;;;1.30;;
52043;SDS011;38053;53.100;6.078;2023-03-14T15:31:40;9.93;;;1.97;;
52043;SDS011;38053;53.100;6.078;2023-03-14T15:34:08;9.77;;;2.10;;
52043;SDS011;38053;53.100;6.078;2023-03-14T15:36:46;2.75;;;0.68;;
52043;SDS011;38053;53.100;6.078;2023-03-14T15:43:01;11.95;;;2.05;;
52043;SDS011;38053;53.100;6.078;2023-03-14T15:45:29;14.10;;;2.50;;
52043;SDS011;38053;53.100;6.078;2023-03-14T15:48:12;7.90;;;2.85;;
52043;SDS011;38053;53.100;6.078;2023-03-14T16:06:44;17.52;;;2.97;;
52043;SDS011;38053;53.100;6.078;2023-03-14T16:21:18;8.25;;;1.23;;
52043;SDS011;38053;53.100;6.078;2023-03-14T16:24:44;6.38;;;1.90;;
52043;SDS011;38053;53.100;6.078;2023-03-14T16:27:32;7.40;;;2.22;;
52043;SDS011;38053;53.100;6.078;2023-03-14T16:41:17;14.25;;;2.30;;
52043;SDS011;38053;53.100;6.078;2023-03-14T16:43:58;6.63;;;1.83;;
52043;SDS011;38053;53.100;6.078;2023-03-14T16:57:36;12.10;;;1.92;;
52043;SDS011;38053;53.100;6.078;2023-03-14T17:00:28;10.98;;;2.33;;
52043;SDS011;38053;53.100;6.078;2023-03-14T17:03:17;8.85;;;1.85;;
52043;SDS011;38053;53.100;6.078;2023-03-14T17:17:20;11.10;;;2.67;;
52043;SDS011;38053;53.100;6.078;2023-03-14T17:20:05;18.80;;;3.08;;